Time;durP1;ratioP1;P1;durP2;ratioP2;P2;SDS_P1;SDS_P2;PMS_P1;PMS_P2;Temp;Humidity;BMP_temperature;BMP_pressure;BME280_temperature;BME280_humidity;BME280_pressure;Samples;Min_cycle;Max_cycle;Signal;HPM_P1;HPM_P2
2022/05/07 00:02:13;;;;;;;1.10;1.10;;;10.90;86.90;10.20;98857.00;;;;5134976;28;20193;-75
2022/05/07 00:04:39;;;;;;;1.40;1.30;;;10.90;86.20;10.10;98853.00;;;;5134931;28;20648;-75
2022/05/07 00:07:08;;;;;;;0.90;0.90;;;10.80;86.60;10.00;98849.00;;;;5135019;28;20205;-76
2022/05/07 00:09:35;;;;;;;1.37;1.27;;;10.80;87.00;10.10;98834.00;;;;5134919;28;20254;-75
2022/05/07 00:12:06;;;;;;;0.60;0.60;;;10.70;87.50;10.10;98844.00;;;;5135153;28;20205;-75
2022/05/07 00:14:36;;;;;;;2.90;1.50;;;10.80;87.10;10.00;98850.00;;;;5116856;28;20262;-76
2022/05/07 00:19:48;;;;;;;0.90;0.90;;;10.60;87.20;10.00;98844.00;;;;5134819;28;20193;-74
2022/05/07 00:22:17;;;;;;;1.00;1.00;;;10.70;87.00;10.00;98849.00;;;;5134377;28;20628;-74
2022/05/07 00:24:46;;;;;;;1.23;1.23;;;10.70;86.90;10.00;98839.00;;;;5134436;28;20244;-74
2022/05/07 00:27:13;;;;;;;1.20;1.17;;;10.60;87.40;9.90;98848.00;;;;5134778;28;20612;-75
2022/05/07 00:29:41;;;;;;;1.07;1.03;;;10.60;86.70;9.90;98844.00;;;;5134647;28;20217;-73
2022/05/07 00:32:09;;;;;;;0.80;0.80;;;10.60;86.80;9.90;98843.00;;;;5134867;28;20305;-75
2022/05/07 00:34:38;;;;;;;2.67;1.13;;;10.50;86.50;9.80;98832.00;;;;5133497;27;20201;-74
2022/05/07 00:37:04;;;;;;;1.23;1.23;;;10.50;87.90;9.80;98808.00;;;;5134416;28;20221;-73
2022/05/07 00:39:34;;;;;;;0.90;0.90;;;10.50;87.00;9.80;98844.00;;;;5134510;28;20225;-73
2022/05/07 00:42:05;;;;;;;1.10;1.00;;;10.40;87.20;9.70;98839.00;;;;5134538;28;20191;-74
2022/05/07 00:44:33;;;;;;;0.80;0.80;;;10.40;86.30;9.70;98853.00;;;;5133985;28;20329;-73
2022/05/07 00:47:16;;;;;;;1.80;1.30;;;10.40;86.20;9.60;98841.00;;;;5134407;28;20189;-74
2022/05/07 00:49:46;;;;;;;1.70;1.23;;;10.20;85.70;9.50;98842.00;;;;5116195;28;20377;-73
2022/05/07 00:52:18;;;;;;;0.97;0.97;;;10.20;86.10;9.50;98845.00;;;;5116180;28;20225;-74
2022/05/07 00:54:46;;;;;;;1.57;1.47;;;10.20;86.20;9.40;98836.00;;;;5134304;28;20644;-73
2022/05/07 00:57:16;;;;;;;0.80;0.80;;;10.10;86.70;9.50;98810.00;;;;5134186;28;20201;-74
2022/05/07 00:59:45;;;;;;;1.27;1.17;;;10.10;87.00;9.40;98826.00;;;;5134189;28;20280;-74
2022/05/07 01:02:12;;;;;;;1.60;1.30;;;10.10;87.20;9.40;98824.00;;;;5134404;28;20253;-73
2022/05/07 01:04:39;;;;;;;1.03;1.03;;;10.10;87.30;9.40;98816.00;;;;5134153;28;20225;-73
2022/05/07 01:07:05;;;;;;;1.00;1.00;;;10.10;87.30;9.40;98812.00;;;;5134253;28;20197;-74
2022/05/07 01:09:32;;;;;;;1.20;1.20;;;10.00;87.00;9.30;98817.00;;;;5134044;28;20207;-74
2022/05/07 01:11:59;;;;;;;1.43;1.43;;;10.00;87.80;9.30;98818.00;;;;5134335;28;20819;-76
2022/05/07 01:14:25;;;;;;;0.90;0.90;;;9.90;87.10;9.10;98815.00;;;;5134090;28;20205;-74
2022/05/07 01:16:54;;;;;;;0.80;0.80;;;9.80;87.10;9.20;98812.00;;;;5134028;28;20494;-74
2022/05/07 01:19:21;;;;;;;0.90;0.90;;;9.80;89.20;9.10;98814.00;;;;5134093;28;20404;-76
2022/05/07 01:21:49;;;;;;;0.70;0.70;;;9.80;89.10;9.10;98813.00;;;;5133993;28;20757;-73
2022/05/07 01:24:15;;;;;;;1.07;1.07;;;9.80;88.80;9.10;98810.00;;;;5133855;28;20217;-73
2022/05/07 01:26:44;;;;;;;4.33;1.40;;;9.70;87.80;9.10;98818.00;;;;5133807;28;20282;-74
2022/05/07 01:29:11;;;;;;;1.60;1.50;;;9.70;89.70;8.90;98814.00;;;;5133959;28;20240;-75
2022/05/07 01:31:37;;;;;;;0.87;0.87;;;9.70;88.90;8.90;98814.00;;;;5133863;28;20216;-72
2022/05/07 01:34:06;;;;;;;1.00;1.00;;;9.60;90.10;8.90;98814.00;;;;5115664;28;20557;-74
2022/05/07 01:36:33;;;;;;;1.03;1.03;;;9.60;90.60;8.90;98810.00;;;;5133883;28;20212;-74
2022/05/07 01:39:00;;;;;;;0.83;0.83;;;9.60;91.50;9.00;98813.00;;;;5133752;28;20193;-74
2022/05/07 01:41:27;;;;;;;1.27;1.27;;;9.60;91.50;9.10;98810.00;;;;5133683;28;20241;-74
2022/05/07 01:43:54;;;;;;;0.70;0.70;;;9.70;91.20;9.00;98814.00;;;;5133672;28;20208;-75
2022/05/07 01:49:07;;;;;;;1.27;1.27;;;9.60;91.20;9.00;98813.00;;;;5137025;28;20532;-74
2022/05/07 01:51:35;;;;;;;0.80;0.80;;;9.60;91.30;9.10;98823.00;;;;5137145;28;20265;-74
2022/05/07 01:54:02;;;;;;;0.90;0.90;;;9.70;91.20;9.00;98814.00;;;;5137153;28;20203;-74
2022/05/07 01:56:31;;;;;;;1.73;1.63;;;9.70;91.00;8.90;98825.00;;;;5137025;28;20224;-74
2022/05/07 01:58:58;;;;;;;1.80;1.47;;;9.60;90.70;8.90;98826.00;;;;5137004;28;20193;-74
2022/05/07 02:01:25;;;;;;;0.90;0.90;;;9.50;90.40;8.80;98825.00;;;;5137031;28;20644;-73
2022/05/07 02:03:52;;;;;;;0.87;0.87;;;9.40;90.30;8.80;98823.00;;;;5136784;28;20229;-74
2022/05/07 02:06:18;;;;;;;0.90;0.90;;;9.50;89.90;8.80;98825.00;;;;5136927;28;20216;-75
2022/05/07 02:08:45;;;;;;;1.60;1.53;;;9.40;89.80;8.80;98825.00;;;;5136914;28;20232;-73
2022/05/07 02:11:12;;;;;;;1.40;1.33;;;9.40;89.80;8.80;98827.00;;;;5138533;28;20300;-75
2022/05/07 02:13:38;;;;;;;1.70;1.30;;;9.40;90.00;8.80;98824.00;;;;5119439;28;20191;-76
2022/05/07 02:16:05;;;;;;;0.97;0.97;;;9.40;89.60;8.60;98823.00;;;;5137457;28;20198;-75
2022/05/07 02:18:34;;;;;;;0.90;0.90;;;9.40;90.00;8.60;98826.00;;;;5119253;28;20202;-74
2022/05/07 02:21:01;;;;;;;1.57;1.47;;;9.40;90.20;8.50;98818.00;;;;5137037;28;20281;-75
2022/05/07 02:23:27;;;;;;;1.00;1.00;;;9.20;90.00;8.50;98817.00;;;;5137112;28;20204;-76
2022/05/07 02:25:54;;;;;;;0.50;0.50;;;9.20;90.50;8.50;98821.00;;;;5136849;28;20223;-74
2022/05/07 02:28:21;;;;;;;0.83;0.83;;;9.20;91.30;8.50;98812.00;;;;5136493;28;20208;-73
2022/05/07 02:30:47;;;;;;;1.73;1.60;;;9.10;91.40;8.60;98815.00;;;;5136399;28;20194;-76
2022/05/07 02:33:14;;;;;;;0.63;0.63;;;9.20;91.70;8.50;98816.00;;;;5136514;28;20275;-74
2022/05/07 02:35:40;;;;;;;1.17;1.17;;;9.20;91.10;8.30;98815.00;;;;5136350;28;20280;-73
2022/05/07 02:38:07;;;;;;;0.77;0.77;;;9.10;91.00;8.40;98813.00;;;;5136310;28;20220;-73
2022/05/07 02:42:33;;;;;;;0.93;0.93;;;9.00;91.60;8.20;98822.00;;;;5136383;28;20346;-74
2022/05/07 02:43:23;;;;;;;1.43;1.33;;;9.00;91.60;8.40;98815.00;;;;5136121;28;20671;-74
2022/05/07 02:45:51;;;;;;;0.80;0.80;;;9.10;92.10;8.50;98821.00;;;;5136207;28;20236;-74
2022/05/07 02:48:18;;;;;;;1.00;1.00;;;9.00;91.90;8.50;98817.00;;;;5136249;28;20589;-73
2022/05/07 02:50:44;;;;;;;1.20;1.20;;;9.20;91.30;8.40;98820.00;;;;5118000;28;20621;-73
2022/05/07 02:53:11;;;;;;;0.93;0.93;;;9.00;90.90;8.40;98824.00;;;;5136038;28;20297;-73
2022/05/07 02:55:40;;;;;;;0.70;0.70;;;9.10;91.40;8.50;98822.00;;;;5136117;28;20209;-74
2022/05/07 02:58:09;;;;;;;0.70;0.70;;;9.10;91.40;8.50;98811.00;;;;5135146;27;20197;-73
2022/05/07 03:00:36;;;;;;;0.97;0.97;;;9.10;91.00;8.50;98819.00;;;;5136005;28;20221;-75
2022/05/07 03:03:03;;;;;;;0.80;0.80;;;9.10;91.20;8.50;98816.00;;;;5117840;28;20209;-73
2022/05/07 03:05:30;;;;;;;1.03;1.03;;;9.10;90.50;8.50;98815.00;;;;5136133;28;20221;-74
2022/05/07 03:07:59;;;;;;;0.77;0.77;;;9.10;91.00;8.40;98812.00;;;;5136020;28;20305;-74
2022/05/07 03:10:25;;;;;;;1.20;1.17;;;9.10;89.90;8.20;98826.00;;;;5135853;28;20253;-74
2022/05/07 03:12:52;;;;;;;1.10;1.10;;;9.00;90.70;8.30;98826.00;;;;5117971;28;20609;-73
2022/05/07 03:15:21;;;;;;;1.20;1.20;;;9.00;91.50;8.30;98819.00;;;;5135902;28;20185;-74
2022/05/07 03:17:48;;;;;;;0.83;0.83;;;9.00;90.70;8.20;98810.00;;;;5139459;28;20291;-74
2022/05/07 03:20:17;;;;;;;1.27;1.23;;;9.00;90.90;8.30;98815.00;;;;5119083;28;20194;-74
2022/05/07 03:22:44;;;;;;;1.13;1.13;;;8.90;90.50;8.20;98820.00;;;;5135890;28;20276;-74
2022/05/07 03:25:11;;;;;;;1.00;1.00;;;8.90;90.40;8.20;98809.00;;;;5135534;28;20228;-74
2022/05/07 03:27:37;;;;;;;1.03;1.03;;;8.80;90.10;8.20;98810.00;;;;5135687;28;20209;-74
2022/05/07 03:30:06;;;;;;;1.60;1.50;;;8.80;90.10;8.20;98800.00;;;;5135947;28;20288;-73
2022/05/07 03:32:36;;;;;;;1.37;1.03;;;8.80;90.20;8.10;98808.00;;;;5135675;28;20204;-74
2022/05/07 03:35:06;;;;;;;1.00;1.00;;;8.80;89.90;8.00;98758.00;;;;5135276;28;20229;-74
2022/05/07 03:37:33;;;;;;;0.70;0.70;;;8.80;90.20;8.10;98810.00;;;;5117318;28;20296;-74
2022/05/07 03:40:02;;;;;;;0.80;0.80;;;8.80;89.50;7.90;98799.00;;;;5135463;28;20202;-73
2022/05/07 03:42:33;;;;;;;2.30;1.00;;;8.60;89.30;7.90;98805.00;;;;5135171;28;20217;-74
2022/05/07 03:45:03;;;;;;;1.30;1.07;;;8.60;89.60;7.80;98804.00;;;;5135266;28;20209;-74
2022/05/07 03:47:32;;;;;;;0.63;0.63;;;8.50;90.10;7.90;98811.00;;;;5135655;28;20675;-74
2022/05/07 03:49:58;;;;;;;1.10;1.10;;;8.60;90.10;7.90;98806.00;;;;5135096;28;20699;-74
2022/05/07 03:55:10;;;;;;;0.70;0.70;;;8.60;89.70;7.90;98809.00;;;;5135607;28;20483;-76
2022/05/07 03:57:36;;;;;;;1.03;1.03;;;8.60;89.50;7.90;98809.00;;;;5135122;28;20735;-74
2022/05/07 04:00:04;;;;;;;0.60;0.60;;;8.60;89.70;7.70;98812.00;;;;5116932;28;20205;-73
2022/05/07 04:02:32;;;;;;;8.33;1.30;;;8.50;90.00;7.80;98814.00;;;;5135175;28;20185;-74
2022/05/07 04:04:59;;;;;;;0.80;0.80;;;8.40;91.10;7.90;98810.00;;;;5135085;28;20260;-75
2022/05/07 04:07:26;;;;;;;1.17;1.10;;;8.60;90.90;8.00;98814.00;;;;5135206;28;20632;-73
2022/05/07 04:09:54;;;;;;;0.80;0.80;;;8.60;90.60;8.00;98810.00;;;;5134822;27;20269;-73
2022/05/07 04:12:21;;;;;;;0.90;0.90;;;8.60;90.00;8.00;98810.00;;;;5134771;28;20324;-74
2022/05/07 04:14:47;;;;;;;1.00;1.00;;;8.60;90.10;8.00;98817.00;;;;5134857;28;20272;-73
2022/05/07 04:17:14;;;;;;;0.80;0.80;;;8.60;89.60;7.80;98822.00;;;;5134798;28;20201;-72
2022/05/07 04:19:41;;;;;;;1.17;1.17;;;8.50;89.30;7.70;98822.00;;;;5134856;28;20322;-73
2022/05/07 04:22:07;;;;;;;0.90;0.90;;;8.40;89.90;7.80;98818.00;;;;5116750;28;20288;-74
2022/05/07 04:24:34;;;;;;;1.27;1.27;;;8.40;90.90;7.80;98811.00;;;;5134672;28;20623;-74
2022/05/07 04:27:01;;;;;;;0.70;0.70;;;8.40;90.40;7.90;98819.00;;;;5134763;28;20291;-73
2022/05/07 04:29:28;;;;;;;1.53;1.43;;;8.50;90.80;7.90;98804.00;;;;5134714;28;20199;-73
2022/05/07 04:31:54;;;;;;;5.00;1.43;;;8.60;89.70;7.80;98823.00;;;;5116637;28;20196;-73
2022/05/07 04:34:22;;;;;;;0.70;0.70;;;8.50;90.20;7.80;98822.00;;;;5116373;28;20197;-73
2022/05/07 04:36:48;;;;;;;1.47;1.37;;;8.50;91.00;7.80;98816.00;;;;5134472;28;20198;-76
2022/05/07 04:39:15;;;;;;;1.23;1.13;;;8.50;91.30;7.90;98830.00;;;;5134510;28;20185;-73
2022/05/07 04:41:42;;;;;;;0.80;0.80;;;8.50;91.30;7.90;98826.00;;;;5116464;28;20193;-73
2022/05/07 04:44:09;;;;;;;1.37;1.33;;;8.60;91.40;7.90;98825.00;;;;5134384;28;20528;-73
2022/05/07 04:46:35;;;;;;;0.70;0.70;;;8.60;91.50;7.90;98826.00;;;;5134288;28;20250;-73
2022/05/07 04:49:02;;;;;;;0.73;0.73;;;8.60;92.00;8.00;98826.00;;;;5134743;28;20693;-73
2022/05/07 04:51:29;;;;;;;1.67;1.57;;;8.70;92.40;8.10;98833.00;;;;5139020;28;20212;-73
2022/05/07 04:53:55;;;;;;;1.57;1.57;;;8.70;92.70;8.00;98830.00;;;;5136838;28;20220;-73
2022/05/07 04:56:24;;;;;;;1.00;1.00;;;8.70;92.30;8.10;98833.00;;;;5134264;28;20276;-73
2022/05/07 04:58:54;;;;;;;2.20;1.53;;;8.70;92.90;8.00;98837.00;;;;5134548;28;20244;-73
2022/05/07 05:01:20;;;;;;;0.73;0.73;;;8.70;92.30;8.00;98836.00;;;;5116272;28;20558;-73
2022/05/07 05:03:46;;;;;;;5.10;1.17;;;8.70;92.60;8.20;98835.00;;;;5134157;28;20277;-73
2022/05/07 05:06:13;;;;;;;1.90;1.57;;;8.80;92.50;8.30;98837.00;;;;5134139;28;20603;-73
2022/05/07 05:08:39;;;;;;;2.83;2.10;;;8.90;91.90;8.30;98835.00;;;;5134132;28;20224;-73
2022/05/07 05:11:06;;;;;;;0.90;0.90;;;8.90;90.80;8.30;98837.00;;;;5116007;28;20280;-73
2022/05/07 05:13:32;;;;;;;1.30;1.30;;;8.90;91.00;8.40;98841.00;;;;5134251;28;20224;-73
2022/05/07 05:16:00;;;;;;;1.43;1.33;;;9.00;90.50;8.40;98847.00;;;;5134012;28;20316;-73
2022/05/07 05:18:26;;;;;;;0.70;0.70;;;9.00;91.20;8.60;98849.00;;;;5134007;28;20216;-74
2022/05/07 05:20:53;;;;;;;0.97;0.97;;;9.10;91.30;8.60;98848.00;;;;5135124;27;20267;-73
2022/05/07 05:23:23;;;;;;;5.90;1.27;;;9.20;90.60;8.50;98844.00;;;;5137674;28;20668;-73
2022/05/07 05:25:49;;;;;;;2.50;1.23;;;9.20;89.60;8.60;98842.00;;;;5137566;28;20209;-73
2022/05/07 05:28:16;;;;;;;1.27;1.27;;;9.20;89.80;8.50;98849.00;;;;5137468;28;20250;-72
2022/05/07 05:30:42;;;;;;;0.87;0.87;;;9.20;89.80;8.60;98849.00;;;;5137524;28;20263;-73
2022/05/07 05:33:10;;;;;;;0.70;0.70;;;9.30;90.50;8.60;98847.00;;;;5137600;28;20198;-73
2022/05/07 05:35:37;;;;;;;0.77;0.77;;;9.30;91.40;8.80;98855.00;;;;5119334;28;20293;-72
2022/05/07 05:38:03;;;;;;;0.80;0.80;;;9.40;91.10;8.80;98855.00;;;;5137394;28;20259;-74
2022/05/07 05:40:33;;;;;;;0.90;0.90;;;9.40;91.10;8.80;98852.00;;;;5137316;28;20633;-74
2022/05/07 05:42:59;;;;;;;0.87;0.87;;;9.50;90.70;9.00;98862.00;;;;5137289;28;20217;-73
2022/05/07 05:45:27;;;;;;;1.63;1.37;;;9.60;90.90;9.10;98858.00;;;;5137192;28;20234;-74
2022/05/07 05:47:53;;;;;;;1.10;1.10;;;9.70;90.90;9.20;98862.00;;;;5137177;28;20193;-74
2022/05/07 05:50:23;;;;;;;0.70;0.70;;;9.80;90.60;9.30;98874.00;;;;5137188;28;20201;-74
2022/05/07 05:52:50;;;;;;;1.47;1.37;;;9.80;90.10;9.20;98863.00;;;;5137288;28;20338;-74
2022/05/07 05:55:16;;;;;;;0.93;0.93;;;9.90;90.60;9.30;98863.00;;;;5119050;28;20342;-74
2022/05/07 05:57:44;;;;;;;0.70;0.70;;;9.90;90.50;9.50;98867.00;;;;5137234;28;20189;-73
2022/05/07 06:00:14;;;;;;;1.20;1.20;;;10.10;90.20;9.50;98866.00;;;;5137040;28;20734;-74
2022/05/07 06:02:43;;;;;;;0.90;0.90;;;10.20;88.90;9.60;98872.00;;;;5137064;28;20262;-74
2022/05/07 06:05:11;;;;;;;1.07;1.07;;;10.20;88.20;9.70;98860.00;;;;5137047;28;20224;-73
2022/05/07 06:07:39;;;;;;;0.73;0.73;;;10.30;87.70;9.80;98863.00;;;;5136859;28;20220;-74
2022/05/07 06:10:06;;;;;;;1.07;1.07;;;10.40;88.00;9.90;98859.00;;;;5136912;28;20283;-73
2022/05/07 06:12:34;;;;;;;2.50;1.83;;;10.50;88.30;10.10;98868.00;;;;5136969;28;21313;-73
2022/05/07 06:15:01;;;;;;;1.40;1.40;;;10.60;88.40;10.10;98844.00;;;;5137210;28;20221;-74
2022/05/07 06:17:28;;;;;;;1.30;1.27;;;10.70;87.60;10.20;98861.00;;;;5136840;28;20217;-73
2022/05/07 06:19:54;;;;;;;0.90;0.90;;;10.80;86.80;10.30;98872.00;;;;5136639;28;20308;-73
2022/05/07 06:22:21;;;;;;;1.70;1.37;;;10.90;87.50;10.40;98873.00;;;;5136709;28;20235;-73
2022/05/07 06:27:35;;;;;;;1.20;1.20;;;11.10;87.70;10.60;98861.00;;;;5136446;28;20217;-74
2022/05/07 06:30:04;;;;;;;1.50;1.40;;;11.20;87.10;10.70;98882.00;;;;5136479;28;20217;-73
2022/05/07 06:32:33;;;;;;;1.87;1.77;;;11.30;87.20;10.80;98871.00;;;;5117171;28;20197;-73
2022/05/07 06:34:59;;;;;;;2.10;2.00;;;11.40;87.00;11.00;98871.00;;;;5136307;28;20221;-74
2022/05/07 06:37:26;;;;;;;2.30;2.20;;;11.60;86.50;11.10;98854.00;;;;5136538;28;20243;-74
2022/05/07 06:39:53;;;;;;;0.90;0.90;;;11.70;86.20;11.10;98868.00;;;;5136377;28;20197;-74
2022/05/07 06:42:22;;;;;;;1.13;1.07;;;11.70;85.40;11.20;98870.00;;;;5118293;28;20601;-74
2022/05/07 06:44:49;;;;;;;0.73;0.73;;;11.80;84.80;11.30;98881.00;;;;5118234;28;20273;-74
2022/05/07 06:47:16;;;;;;;1.27;1.27;;;11.80;84.60;11.40;98882.00;;;;5118448;28;20657;-74
2022/05/07 06:49:43;;;;;;;1.23;1.23;;;12.00;84.00;11.50;98879.00;;;;5118113;28;20283;-74
2022/05/07 06:52:09;;;;;;;1.60;1.50;;;12.10;83.90;11.60;98880.00;;;;5136315;28;20204;-74
2022/05/07 06:54:36;;;;;;;2.33;2.23;;;12.20;85.30;11.60;98878.00;;;;5136615;28;20198;-74
2022/05/07 06:57:05;;;;;;;4.07;1.27;;;12.20;85.00;11.70;98866.00;;;;5117733;28;20329;-74
2022/05/07 06:59:32;;;;;;;0.97;0.97;;;12.30;85.60;11.70;98880.00;;;;5135998;28;20213;-74
2022/05/07 07:02:00;;;;;;;0.90;0.90;;;12.40;85.40;11.90;98879.00;;;;5136134;28;20200;-74
2022/05/07 07:04:26;;;;;;;0.80;0.80;;;12.50;84.40;11.90;98875.00;;;;5117879;28;20197;-74
2022/05/07 07:06:53;;;;;;;1.60;1.50;;;12.50;84.30;12.00;98883.00;;;;5118317;28;20209;-75
2022/05/07 07:09:19;;;;;;;1.43;1.37;;;12.60;84.10;12.10;98880.00;;;;5135902;28;20221;-75
2022/05/07 07:11:46;;;;;;;0.90;0.90;;;12.70;83.70;12.20;98861.00;;;;5135856;28;20201;-75
2022/05/07 07:14:13;;;;;;;1.30;1.30;;;12.80;82.50;12.30;98880.00;;;;5135840;28;20213;-75
2022/05/07 07:16:39;;;;;;;1.07;1.07;;;12.80;82.40;12.40;98883.00;;;;5135711;28;20239;-76
2022/05/07 07:19:06;;;;;;;0.97;0.93;;;12.90;82.20;12.40;98881.00;;;;5135833;28;20226;-75
2022/05/07 07:21:32;;;;;;;1.67;1.57;;;13.00;82.40;12.50;98885.00;;;;5135708;28;20228;-75
2022/05/07 07:23:59;;;;;;;1.47;1.37;;;13.10;82.20;12.60;98882.00;;;;5136151;28;20202;-75
2022/05/07 07:26:26;;;;;;;1.57;1.47;;;13.20;82.20;12.70;98876.00;;;;5135687;28;20273;-76
2022/05/07 07:28:53;;;;;;;1.70;1.60;;;13.30;82.00;12.80;98878.00;;;;5135737;28;20196;-75
2022/05/07 07:31:23;;;;;;;1.33;1.30;;;13.40;81.40;12.90;98885.00;;;;5135490;28;20316;-73
2022/05/07 07:33:50;;;;;;;1.73;1.63;;;13.50;81.80;13.00;98880.00;;;;5117401;28;20533;-75
2022/05/07 07:36:18;;;;;;;0.90;0.90;;;13.50;80.80;13.00;98874.00;;;;5135492;28;20194;-75
2022/05/07 07:38:47;;;;;;;1.10;1.10;;;12.80;80.10;13.10;98876.00;;;;5135379;28;20221;-75
2022/05/07 07:41:17;;;;;;;1.37;1.33;;;13.70;80.60;13.30;98875.00;;;;5135513;28;20677;-75
2022/05/07 07:43:43;;;;;;;1.83;1.73;;;13.80;79.50;13.40;98877.00;;;;5134914;27;20198;-75
2022/05/07 07:48:58;;;;;;;1.70;1.60;;;13.90;77.90;13.60;98866.00;;;;5135327;28;20251;-75
2022/05/07 07:51:24;;;;;;;1.40;1.30;;;14.10;77.30;13.60;98869.00;;;;5135676;28;20272;-74
2022/05/07 07:53:51;;;;;;;1.97;1.57;;;14.10;77.30;13.80;98863.00;;;;5135362;28;20229;-75
2022/05/07 07:56:18;;;;;;;1.60;1.50;;;14.30;76.70;14.00;98874.00;;;;5135157;28;20220;-75
2022/05/07 07:58:44;;;;;;;1.17;1.17;;;14.50;75.80;14.00;98873.00;;;;5135048;28;20197;-74
2022/05/07 08:01:13;;;;;;;2.10;1.90;;;14.50;75.00;14.10;98867.00;;;;5135206;28;20227;-76
2022/05/07 08:03:39;;;;;;;1.00;1.00;;;14.60;74.50;14.10;98867.00;;;;5135007;28;20201;-75
2022/05/07 08:06:07;;;;;;;1.33;1.33;;;14.70;74.40;14.30;98874.00;;;;5117129;28;20667;-75
2022/05/07 08:14:06;;;;;;;1.27;1.27;;;14.90;70.20;14.40;98876.00;;;;5134683;28;20224;-75
2022/05/07 08:16:33;;;;;;;3.03;1.23;;;15.00;69.00;14.60;98867.00;;;;5116391;28;20200;-76
2022/05/07 08:19:00;;;;;;;1.40;1.30;;;15.00;67.50;14.60;98871.00;;;;5134500;28;20209;-76
2022/05/07 08:21:27;;;;;;;1.40;1.30;;;15.20;67.20;14.80;98872.00;;;;5135510;28;20197;-77
2022/05/07 08:23:57;;;;;;;1.07;1.07;;;15.30;65.70;14.80;98871.00;;;;5134738;28;20194;-76
2022/05/07 08:26:24;;;;;;;2.20;1.97;;;15.30;66.50;14.90;98864.00;;;;5116155;28;20256;-75
2022/05/07 08:28:52;;;;;;;1.23;1.13;;;15.40;63.60;14.90;98876.00;;;;5134362;28;20197;-77
2022/05/07 08:31:21;;;;;;;1.20;1.10;;;15.50;65.10;15.00;98875.00;;;;5134407;28;20280;-78
2022/05/07 08:33:51;;;;;;;1.97;1.87;;;15.60;65.00;15.00;98872.00;;;;5134389;28;20208;-76
2022/05/07 08:36:17;;;;;;;2.37;2.17;;;15.60;65.00;15.20;98873.00;;;;5133977;28;20227;-75
2022/05/07 08:38:47;;;;;;;4.93;2.27;;;15.80;65.50;15.30;98863.00;;;;5134166;28;20486;-76
2022/05/07 08:41:13;;;;;;;1.70;1.60;;;15.90;64.10;15.40;98862.00;;;;5134244;28;20274;-76
2022/05/07 08:43:42;;;;;;;1.67;1.63;;;15.90;64.00;15.50;98874.00;;;;5134202;28;20540;-77
2022/05/07 08:46:11;;;;;;;2.83;2.63;;;16.00;63.70;15.50;98844.00;;;;5134133;28;20220;-79
2022/05/07 08:48:41;;;;;;;1.77;1.67;;;16.00;61.80;15.70;98871.00;;;;5133932;28;20338;-76
2022/05/07 08:51:07;;;;;;;1.53;1.43;;;;;15.70;98867.00;;;;5134213;28;20221;-74
2022/05/07 08:53:34;;;;;;;1.00;1.00;;;;;15.80;98869.00;;;;5134015;28;20691;-75
2022/05/07 08:56:05;;;;;;;11.97;1.70;;;;;16.00;98864.00;;;;5135412;27;20200;-75
2022/05/07 08:58:32;;;;;;;3.40;1.80;;;;;16.10;98863.00;;;;5137702;28;20192;-77
2022/05/07 09:01:00;;;;;;;1.20;1.10;;;;;16.20;98861.00;;;;5137623;28;20205;-74
2022/05/07 09:03:38;;;;;;;1.23;1.13;;;;;16.30;98859.00;;;;5137733;28;20272;-76
2022/05/07 09:06:19;;;;;;;1.80;1.67;;;;;16.30;98866.00;;;;5137668;28;20240;-77
2022/05/07 09:08:47;;;;;;;0.80;0.80;;;;;16.40;98861.00;;;;5137619;28;20205;-79
2022/05/07 09:11:16;;;;;;;1.43;1.23;;;;;16.60;98866.00;;;;5138231;28;20232;-77
2022/05/07 09:13:43;;;;;;;0.97;0.97;;;;;16.80;98866.00;;;;5137535;28;20205;-80
2022/05/07 09:16:10;;;;;;;1.60;1.50;;;;;16.90;98864.00;;;;5137366;28;20270;-81
2022/05/07 09:18:45;;;;;;;1.63;1.53;;;;;16.90;98865.00;;;;5137490;28;20532;-80
2022/05/07 09:21:20;;;;;;;1.37;1.33;;;;;17.00;98858.00;;;;5137764;28;20268;-80
2022/05/07 09:24:00;;;;;;;1.03;1.03;;;;;17.30;98867.00;;;;5137538;28;20208;-79
2022/05/07 09:26:28;;;;;;;1.60;1.50;;;;;17.30;98855.00;;;;5137155;28;20277;-79
2022/05/07 09:28:58;;;;;;;0.80;0.80;;;;;17.50;98854.00;;;;5137199;28;20197;-78
2022/05/07 09:31:26;;;;;;;1.03;1.03;;;17.90;50.50;17.50;98861.00;;;;5137174;28;20189;-79
2022/05/07 09:33:53;;;;;;;1.13;1.13;;;17.90;50.40;17.60;98840.00;;;;5137308;28;20225;-80
2022/05/07 09:36:22;;;;;;;1.70;1.60;;;18.00;50.60;17.90;98855.00;;;;5137245;28;20189;-79
2022/05/07 09:38:59;;;;;;;1.63;1.53;;;18.20;52.50;17.90;98848.00;;;;5137414;28;20225;-78
2022/05/07 09:41:26;;;;;;;0.70;0.70;;;18.40;49.10;18.10;98851.00;;;;5137586;28;20204;-80
2022/05/07 09:43:54;;;;;;;0.63;0.63;;;18.50;49.20;18.10;98848.00;;;;5137329;28;20221;-77
2022/05/07 09:46:21;;;;;;;1.63;1.53;;;18.50;49.60;18.10;98841.00;;;;5137093;28;20289;-79
2022/05/07 09:48:52;;;;;;;3.10;1.40;;;18.50;45.50;18.20;98843.00;;;;5137010;28;20221;-77
2022/05/07 09:51:20;;;;;;;1.63;1.57;;;18.60;46.40;18.20;98837.00;;;;5136992;28;20201;-76
2022/05/07 09:59:20;;;;;;;0.70;0.70;;;18.90;45.60;18.80;98844.00;;;;5136856;28;20205;-77
2022/05/07 10:02:11;;;;;;;1.03;0.80;;;19.10;46.10;19.00;98836.00;;;;5136996;28;20305;-79
2022/05/07 10:04:59;;;;;;;1.37;0.97;;;19.30;42.00;19.10;98834.00;;;;5136677;28;20199;-74
2022/05/07 10:07:43;;;;;;;1.40;1.30;;;19.50;41.80;19.40;98834.00;;;;5118294;28;20663;-75
2022/05/07 10:10:24;;;;;;;0.90;0.90;;;19.70;40.50;19.50;98835.00;;;;5136794;28;20204;-74
2022/05/07 10:12:55;;;;;;;1.37;1.23;;;19.90;39.30;19.80;98835.00;;;;5136698;28;20186;-76
2022/05/07 10:15:23;;;;;;;0.90;0.90;;;20.00;36.80;19.80;98799.00;;;;5136669;28;20201;-77
2022/05/07 10:18:02;;;;;;;1.07;1.07;;;20.10;37.40;19.80;98826.00;;;;5136492;28;20239;-76
2022/05/07 10:20:41;;;;;;;0.83;0.83;;;20.20;39.10;19.90;98825.00;;;;5136431;28;20205;-75
2022/05/07 10:23:11;;;;;;;0.77;0.77;;;20.30;37.40;20.00;98829.00;;;;5136490;28;20228;-78
2022/05/07 10:25:39;;;;;;;0.97;0.87;;;20.30;38.40;20.10;98822.00;;;;5136707;28;20227;-78
2022/05/07 10:28:11;;;;;;;0.80;0.80;;;20.50;42.50;20.30;98823.00;;;;5136672;28;20245;-79
2022/05/07 10:30:48;;;;;;;0.77;0.77;;;20.70;38.90;20.40;98834.00;;;;5136844;28;20185;-78
2022/05/07 10:33:15;;;;;;;0.60;0.60;;;20.80;38.30;20.20;98815.00;;;;5137140;28;20199;-78
2022/05/07 10:35:44;;;;;;;0.70;0.70;;;20.70;37.40;19.90;98830.00;;;;5138195;28;20307;-79
2022/05/07 10:38:13;;;;;;;0.47;0.47;;;20.40;37.40;19.80;98828.00;;;;5145832;28;20285;-79
2022/05/07 10:40:53;;;;;;;0.80;0.80;;;20.30;36.70;19.70;98827.00;;;;5142144;28;20616;-78
2022/05/07 10:43:29;;;;;;;0.87;0.87;;;20.20;37.20;19.70;98812.00;;;;5137244;28;20297;-79
2022/05/07 10:46:00;;;;;;;0.80;0.80;;;20.20;36.90;19.70;98817.00;;;;5136585;28;20251;-79
2022/05/07 10:48:27;;;;;;;1.23;0.80;;;20.20;35.00;19.70;98810.00;;;;5136385;28;20827;-78
2022/05/07 10:50:58;;;;;;;0.70;0.70;;;20.10;35.80;19.80;98816.00;;;;5136462;28;20225;-78
2022/05/07 10:53:36;;;;;;;0.80;0.80;;;20.10;35.30;19.70;98810.00;;;;5136336;28;20263;-78
2022/05/07 10:56:02;;;;;;;0.70;0.70;;;20.10;34.90;19.70;98812.00;;;;5136229;28;20221;-78
2022/05/07 10:58:30;;;;;;;0.50;0.50;;;20.10;35.30;20.10;98812.00;;;;5118409;28;20205;-78
2022/05/07 11:00:59;;;;;;;0.80;0.80;;;20.40;31.70;20.20;98812.00;;;;5136578;28;20655;-79
2022/05/07 11:03:27;;;;;;;0.40;0.40;;;20.40;34.00;20.00;98803.00;;;;5136205;28;20270;-79
2022/05/07 11:06:01;;;;;;;0.53;0.53;;;20.40;32.80;19.90;98807.00;;;;5117911;28;20265;-77
2022/05/07 11:08:30;;;;;;;0.70;0.70;;;20.30;32.50;20.10;98803.00;;;;5136236;28;20185;-79
2022/05/07 11:11:08;;;;;;;0.47;0.47;;;20.50;34.60;20.60;98803.00;;;;5136044;28;20220;-78
2022/05/07 11:13:45;;;;;;;0.50;0.50;;;20.90;34.90;21.10;98796.00;;;;5118047;28;20566;-79
2022/05/07 11:16:13;;;;;;;0.70;0.70;;;21.30;32.70;21.20;98797.00;;;;5135935;28;20204;-79
2022/05/07 11:18:41;;;;;;;0.70;0.70;;;21.40;29.50;21.40;98788.00;;;;5135398;27;20189;-78
2022/05/07 11:21:10;;;;;;;0.50;0.50;;;21.60;30.10;21.50;98787.00;;;;5135955;28;20644;-79
2022/05/07 11:23:37;;;;;;;0.80;0.80;;;21.70;27.20;21.70;98785.00;;;;5135770;28;20215;-79
2022/05/07 11:26:16;;;;;;;0.40;0.40;;;22.00;30.50;22.20;98788.00;;;;5135638;28;20660;-79
2022/05/07 11:28:45;;;;;;;0.60;0.60;;;22.40;31.10;22.60;98767.00;;;;5135871;28;20194;-78
2022/05/07 11:31:15;;;;;;;0.40;0.40;;;22.80;29.30;23.00;98787.00;;;;5135673;28;20254;-80
2022/05/07 11:33:42;;;;;;;0.50;0.50;;;23.10;29.40;23.40;98782.00;;;;5135790;28;20232;-77
2022/05/07 11:36:09;;;;;;;0.70;0.70;;;23.40;29.00;23.20;98787.00;;;;5135696;28;20189;-79